createdAt,value
2023-03-26T00:00:00.465Z,4.43
2023-03-26T00:05:34.722Z,4.27
2023-03-26T00:11:00.017Z,4.17
2023-03-26T00:16:41.361Z,4.93
2023-03-26T00:22:27.736Z,1.57
2023-03-26T00:28:05.979Z,6.83
2023-03-26T00:33:39.052Z,3.30
2023-03-26T00:39:14.155Z,4.30
2023-03-26T00:44:38.467Z,1.87
2023-03-26T00:50:00.181Z,1.40
2023-03-26T00:55:23.529Z,4.87
2023-03-26T01:00:59.163Z,2.43
2023-03-26T01:06:43.803Z,3.20
2023-03-26T01:12:10.315Z,1.90
2023-03-26T01:17:53.003Z,2.07
2023-03-26T01:23:38.974Z,2.30
2023-03-26T01:29:38.186Z,4.27
2023-03-26T01:35:31.669Z,3.00
2023-03-26T01:41:27.450Z,1.50
2023-03-26T01:47:11.231Z,4.00
2023-03-26T01:52:47.711Z,2.63
2023-03-26T01:58:30.333Z,8.03
2023-03-26T02:04:23.281Z,5.50
2023-03-26T02:09:55.748Z,4.33
2023-03-26T02:15:17.395Z,3.00
2023-03-26T02:20:38.730Z,2.70
2023-03-26T02:26:27.013Z,3.37
2023-03-26T02:32:25.831Z,3.87
2023-03-26T02:38:11.280Z,3.97
2023-03-26T02:43:58.609Z,6.60
2023-03-26T02:49:50.710Z,5.33
2023-03-26T02:55:19.122Z,5.07
2023-03-26T03:00:42.083Z,2.47
2023-03-26T03:06:59.191Z,3.17
2023-03-26T03:12:32.517Z,6.63
2023-03-26T03:18:09.130Z,8.77
2023-03-26T03:24:00.134Z,3.57
2023-03-26T03:29:38.344Z,5.03
2023-03-26T03:35:33.727Z,3.40
2023-03-26T03:41:09.461Z,2.07
2023-03-26T03:47:17.024Z,5.60
2023-03-26T03:53:03.440Z,3.60
2023-03-26T03:58:46.733Z,4.53
2023-03-26T04:04:34.172Z,2.67
2023-03-26T04:10:09.086Z,3.37
2023-03-26T04:16:32.500Z,4.67
2023-03-26T04:22:10.559Z,8.43
2023-03-26T04:28:08.677Z,7.57
2023-03-26T04:34:09.650Z,3.60
2023-03-26T04:39:41.294Z,8.17
2023-03-26T04:45:22.819Z,8.70
2023-03-26T04:51:08.630Z,6.63
2023-03-26T04:57:01.479Z,9.67
2023-03-26T05:03:06.223Z,5.20
2023-03-26T05:08:34.906Z,7.70
2023-03-26T05:14:14.868Z,3.83
2023-03-26T05:19:39.132Z,5.00
2023-03-26T05:25:00.807Z,4.60
2023-03-26T05:30:23.130Z,4.80
2023-03-26T05:36:25.585Z,5.90
2023-03-26T05:42:28.338Z,6.33
2023-03-26T05:48:11.330Z,6.00
2023-03-26T05:53:48.996Z,7.60
2023-03-26T05:59:20.456Z,10.07
2023-03-26T06:05:09.588Z,7.67
2023-03-26T06:11:24.893Z,6.50
2023-03-26T06:17:04.040Z,6.53
2023-03-26T06:23:07.326Z,7.07
2023-03-26T06:29:15.017Z,8.27
2023-03-26T06:35:00.707Z,8.30
2023-03-26T06:40:23.239Z,6.10
2023-03-26T06:52:18.449Z,13.03
2023-03-26T06:58:20.467Z,8.47
2023-03-26T07:04:24.352Z,7.17
2023-03-26T07:10:34.063Z,7.73
2023-03-26T07:16:39.600Z,8.63
2023-03-26T07:22:43.978Z,6.97
2023-03-26T07:29:04.955Z,7.30
2023-03-26T07:35:29.036Z,3.97
2023-03-26T07:42:04.529Z,8.23
2023-03-26T07:48:04.491Z,10.20
2023-03-26T07:53:50.261Z,5.50
2023-03-26T07:59:45.472Z,9.17
2023-03-26T08:05:42.090Z,11.10
2023-03-26T08:11:54.504Z,9.83
2023-03-26T08:17:47.858Z,4.90
2023-03-26T08:24:07.601Z,8.83
2023-03-26T08:29:58.221Z,7.50
2023-03-26T08:35:19.857Z,8.03
2023-03-26T08:47:33.010Z,11.00
2023-03-26T08:53:22.198Z,8.83
2023-03-26T08:59:29.877Z,10.80
2023-03-26T09:05:32.316Z,5.87
2023-03-26T09:11:23.757Z,10.97
2023-03-26T09:17:10.092Z,9.07
2023-03-26T09:23:14.977Z,8.23
2023-03-26T09:29:18.529Z,5.30
2023-03-26T09:35:15.544Z,6.70
2023-03-26T09:40:42.575Z,7.00
2023-03-26T09:46:27.079Z,6.63
2023-03-26T09:52:29.535Z,4.27
2023-03-26T09:58:30.082Z,7.50
2023-03-26T10:04:18.898Z,4.67
2023-03-26T10:10:05.129Z,4.17
2023-03-26T10:16:13.709Z,5.23
2023-03-26T10:22:09.663Z,3.97
2023-03-26T10:27:56.844Z,5.47
2023-03-26T10:34:04.634Z,6.33
2023-03-26T10:39:47.425Z,5.20
2023-03-26T10:45:57.866Z,6.07
2023-03-26T10:51:49.179Z,4.80
2023-03-26T10:57:34.660Z,6.00
2023-03-26T11:03:50.100Z,4.50
2023-03-26T11:09:21.053Z,4.77
2023-03-26T11:14:51.589Z,4.63
2023-03-26T11:20:22.945Z,5.63
2023-03-26T11:25:47.013Z,7.63
2023-03-26T11:31:47.304Z,7.07
2023-03-26T11:37:36.247Z,5.63
2023-03-26T11:43:29.298Z,7.57
2023-03-26T11:49:11.187Z,6.80
2023-03-26T11:54:43.469Z,4.20
2023-03-26T12:00:17.810Z,4.13
2023-03-26T12:06:02.183Z,4.93
2023-03-26T12:11:46.436Z,4.03
2023-03-26T12:17:50.029Z,5.00
2023-03-26T12:23:57.752Z,5.80
2023-03-26T12:29:27.757Z,7.27
2023-03-26T12:34:56.198Z,7.13
2023-03-26T12:40:32.696Z,6.57
2023-03-26T12:47:56.060Z,6.97
2023-03-26T12:52:29.794Z,4.90
2023-03-26T12:58:13.980Z,5.07
2023-03-26T13:04:20.767Z,6.93
2023-03-26T13:10:46.185Z,10.20
2023-03-26T13:16:34.670Z,8.57
2023-03-26T13:22:25.783Z,12.90
2023-03-26T13:28:24.442Z,5.67
2023-03-26T13:34:14.543Z,8.70
2023-03-26T13:40:17.262Z,11.60
2023-03-26T13:45:41.362Z,10.90
2023-03-26T13:51:29.479Z,9.63
2023-03-26T13:57:18.218Z,5.07
2023-03-26T14:03:19.223Z,2.50
2023-03-26T14:09:10.424Z,2.17
2023-03-26T14:14:58.868Z,3.43
2023-03-26T14:20:32.791Z,2.67
2023-03-26T14:26:28.488Z,2.63
2023-03-26T14:32:30.010Z,2.50
2023-03-26T14:38:45.358Z,2.83
2023-03-26T14:44:47.678Z,4.83
2023-03-26T14:50:20.589Z,6.43
2023-03-26T14:56:32.753Z,4.27
2023-03-26T15:02:34.349Z,2.60
2023-03-26T15:08:37.661Z,6.73
2023-03-26T15:14:29.313Z,6.23
2023-03-26T15:20:13.826Z,6.07
2023-03-26T15:26:27.323Z,6.43
2023-03-26T15:32:35.052Z,4.00
2023-03-26T15:38:22.821Z,8.73
2023-03-26T15:44:29.291Z,5.63
2023-03-26T15:50:02.250Z,5.33
2023-03-26T15:55:34.297Z,7.40
2023-03-26T16:01:19.102Z,5.57
2023-03-26T16:06:59.890Z,10.00
2023-03-26T16:12:32.740Z,5.40
2023-03-26T16:18:28.047Z,4.30
2023-03-26T16:24:06.356Z,3.60
2023-03-26T16:29:30.636Z,7.87
2023-03-26T16:35:00.449Z,3.57
2023-03-26T16:40:32.638Z,2.47
2023-03-26T16:46:51.203Z,2.57
2023-03-26T16:52:34.624Z,3.63
2023-03-26T16:58:53.720Z,2.77
2023-03-26T17:10:32.015Z,2.87
2023-03-26T17:16:31.430Z,3.40
2023-03-26T17:22:27.458Z,3.93
2023-03-26T17:28:36.982Z,1.17
2023-03-26T17:34:39.304Z,2.37
2023-03-26T17:40:12.246Z,1.33
2023-03-26T17:45:37.096Z,1.73
2023-03-26T17:51:29.414Z,3.50
2023-03-26T17:57:15.772Z,2.53
2023-03-26T18:08:47.123Z,3.27
2023-03-26T18:14:37.617Z,3.23
2023-03-26T18:20:10.050Z,5.17
2023-03-26T18:25:34.185Z,6.33
2023-03-26T18:31:29.933Z,4.73
2023-03-26T18:37:33.216Z,6.40
2023-03-26T18:43:12.358Z,3.63
2023-03-26T18:49:00.446Z,4.13
2023-03-26T18:54:36.074Z,3.70
2023-03-26T19:00:20.028Z,4.10
2023-03-26T19:05:55.832Z,6.33
2023-03-26T19:11:27.603Z,8.73
2023-03-26T19:17:11.528Z,7.60
2023-03-26T19:22:59.357Z,8.40
2023-03-26T19:28:43.062Z,10.27
2023-03-26T19:34:22.584Z,13.73
2023-03-26T19:39:49.263Z,12.57
2023-03-26T19:45:17.748Z,13.70
2023-03-26T19:50:43.717Z,9.93
2023-03-26T19:56:31.508Z,10.93
2023-03-26T20:02:10.318Z,9.20
2023-03-26T20:07:41.523Z,6.53
2023-03-26T20:13:25.672Z,8.43
2023-03-26T20:19:00.253Z,7.23
2023-03-26T20:24:24.826Z,6.97
2023-03-26T20:29:46.642Z,8.70
2023-03-26T20:35:36.225Z,7.67
2023-03-26T20:41:19.577Z,5.30
2023-03-26T20:47:09.343Z,5.87
2023-03-26T20:52:41.095Z,5.83
2023-03-26T20:58:13.077Z,6.90
2023-03-26T21:03:57.162Z,7.00
2023-03-26T21:09:25.337Z,9.23
2023-03-26T21:14:47.122Z,10.10
2023-03-26T21:20:13.656Z,13.17
2023-03-26T21:25:56.267Z,9.37
2023-03-26T21:31:25.009Z,10.60
2023-03-26T21:37:05.094Z,9.73
2023-03-26T21:43:00.251Z,8.40
2023-03-26T21:48:42.688Z,8.47
2023-03-26T21:54:28.944Z,10.17
2023-03-26T22:00:15.366Z,10.53
2023-03-26T22:06:12.784Z,8.73
2023-03-26T22:12:08.265Z,11.20
2023-03-26T22:18:01.459Z,15.50
2023-03-26T22:24:06.671Z,10.23
2023-03-26T22:29:46.731Z,11.87
2023-03-26T22:35:11.532Z,9.87
2023-03-26T22:40:33.042Z,7.47
2023-03-26T22:46:07.806Z,6.87
2023-03-26T22:52:08.862Z,6.10
2023-03-26T23:03:38.963Z,7.57
2023-03-26T23:09:03.773Z,7.43
2023-03-26T23:14:25.242Z,5.80
2023-03-26T23:19:46.866Z,7.43
2023-03-26T23:25:10.358Z,6.47
2023-03-26T23:30:32.143Z,11.30
2023-03-26T23:36:27.888Z,7.43
2023-03-26T23:42:15.637Z,7.80
2023-03-26T23:47:56.811Z,6.30
2023-03-26T23:53:37.566Z,6.07
2023-03-26T23:59:06.487Z,9.40
